sensor_id;sensor_type;location;lat;lon;timestamp;temperature;humidity
48998;DHT22;34807;51.456;7.244;2022-12-17T00:00:21;-0.90;94.00
48998;DHT22;34807;51.456;7.244;2022-12-17T00:03:07;-0.90;94.00
48998;DHT22;34807;51.456;7.244;2022-12-17T00:05:52;-0.90;94.00
48998;DHT22;34807;51.456;7.244;2022-12-17T00:08:36;-0.90;94.10
48998;DHT22;34807;51.456;7.244;2022-12-17T00:11:20;-0.90;94.00
48998;DHT22;34807;51.456;7.244;2022-12-17T00:14:05;-0.90;94.00
48998;DHT22;34807;51.456;7.244;2022-12-17T00:16:49;-0.90;94.00
48998;DHT22;34807;51.456;7.244;2022-12-17T00:19:33;-0.90;94.00
48998;DHT22;34807;51.456;7.244;2022-12-17T00:22:17;-0.90;94.00
48998;DHT22;34807;51.456;7.244;2022-12-17T00:25:02;-0.90;93.90
48998;DHT22;34807;51.456;7.244;2022-12-17T00:27:46;-0.90;94.00
48998;DHT22;34807;51.456;7.244;2022-12-17T00:30:30;-0.90;94.00
48998;DHT22;34807;51.456;7.244;2022-12-17T00:33:14;-0.90;94.00
48998;DHT22;34807;51.456;7.244;2022-12-17T00:35:58;-0.90;94.00
48998;DHT22;34807;51.456;7.244;2022-12-17T00:38:44;-0.90;94.00
48998;DHT22;34807;51.456;7.244;2022-12-17T00:41:28;-0.90;94.00
48998;DHT22;34807;51.456;7.244;2022-12-17T00:44:12;-0.90;94.00
48998;DHT22;34807;51.456;7.244;2022-12-17T00:46:57;-0.90;94.00
48998;DHT22;34807;51.456;7.244;2022-12-17T00:49:41;-0.90;94.00
48998;DHT22;34807;51.456;7.244;2022-12-17T00:52:25;-0.90;94.00
48998;DHT22;34807;51.456;7.244;2022-12-17T00:55:09;-0.90;94.00
48998;DHT22;34807;51.456;7.244;2022-12-17T00:57:54;-0.80;94.00
48998;DHT22;34807;51.456;7.244;2022-12-17T01:00:38;-0.80;94.00
48998;DHT22;34807;51.456;7.244;2022-12-17T01:03:22;-0.80;94.00
48998;DHT22;34807;51.456;7.244;2022-12-17T01:06:07;-0.80;94.00
48998;DHT22;34807;51.456;7.244;2022-12-17T01:08:51;-0.80;94.10
48998;DHT22;34807;51.456;7.244;2022-12-17T01:11:35;-0.80;94.10
48998;DHT22;34807;51.456;7.244;2022-12-17T01:14:19;-0.80;94.00
48998;DHT22;34807;51.456;7.244;2022-12-17T01:17:04;-0.80;94.00
48998;DHT22;34807;51.456;7.244;2022-12-17T01:19:48;-0.80;94.30
48998;DHT22;34807;51.456;7.244;2022-12-17T01:22:32;-0.80;94.10
48998;DHT22;34807;51.456;7.244;2022-12-17T01:25:16;-0.80;94.10
48998;DHT22;34807;51.456;7.244;2022-12-17T01:28:01;-0.80;94.10
48998;DHT22;34807;51.456;7.244;2022-12-17T01:30:45;-0.80;94.10
48998;DHT22;34807;51.456;7.244;2022-12-17T01:33:29;-0.80;94.00
48998;DHT22;34807;51.456;7.244;2022-12-17T01:36:14;-0.80;94.10
48998;DHT22;34807;51.456;7.244;2022-12-17T01:38:58;-0.80;94.00
48998;DHT22;34807;51.456;7.244;2022-12-17T01:41:42;-0.80;94.00
48998;DHT22;34807;51.456;7.244;2022-12-17T01:47:32;-0.80;94.00
48998;DHT22;34807;51.456;7.244;2022-12-17T01:50:17;-0.80;94.00
48998;DHT22;34807;51.456;7.244;2022-12-17T01:53:02;-0.80;93.90
48998;DHT22;34807;51.456;7.244;2022-12-17T01:55:47;-0.80;93.90
48998;DHT22;34807;51.456;7.244;2022-12-17T01:58:32;-0.80;94.00
48998;DHT22;34807;51.456;7.244;2022-12-17T02:01:16;-0.80;93.90
48998;DHT22;34807;51.456;7.244;2022-12-17T02:04:00;-0.80;94.00
48998;DHT22;34807;51.456;7.244;2022-12-17T02:07:03;-0.80;93.90
48998;DHT22;34807;51.456;7.244;2022-12-17T02:09:54;-0.80;93.90
48998;DHT22;34807;51.456;7.244;2022-12-17T02:12:50;-0.80;94.00
48998;DHT22;34807;51.456;7.244;2022-12-17T02:15:54;-0.80;93.90
48998;DHT22;34807;51.456;7.244;2022-12-17T02:18:42;-0.80;93.90
48998;DHT22;34807;51.456;7.244;2022-12-17T02:21:27;-0.80;93.90
48998;DHT22;34807;51.456;7.244;2022-12-17T02:24:34;-0.80;94.00
48998;DHT22;34807;51.456;7.244;2022-12-17T02:27:21;-0.80;93.90
48998;DHT22;34807;51.456;7.244;2022-12-17T02:30:06;-0.80;93.90
48998;DHT22;34807;51.456;7.244;2022-12-17T02:32:51;-0.80;93.90
48998;DHT22;34807;51.456;7.244;2022-12-17T02:35:58;-0.80;94.00
48998;DHT22;34807;51.456;7.244;2022-12-17T02:38:42;-0.80;93.90
48998;DHT22;34807;51.456;7.244;2022-12-17T02:41:27;-0.80;93.90
48998;DHT22;34807;51.456;7.244;2022-12-17T02:44:13;-0.80;93.90
48998;DHT22;34807;51.456;7.244;2022-12-17T02:46:58;-0.80;93.90
48998;DHT22;34807;51.456;7.244;2022-12-17T02:49:43;-0.90;93.90
48998;DHT22;34807;51.456;7.244;2022-12-17T02:52:27;-0.90;93.90
48998;DHT22;34807;51.456;7.244;2022-12-17T02:55:11;-0.90;93.90
48998;DHT22;34807;51.456;7.244;2022-12-17T02:57:55;-0.80;93.90
48998;DHT22;34807;51.456;7.244;2022-12-17T03:00:39;-0.80;93.90
48998;DHT22;34807;51.456;7.244;2022-12-17T03:03:24;-0.80;93.90
48998;DHT22;34807;51.456;7.244;2022-12-17T03:06:08;-0.80;93.90
48998;DHT22;34807;51.456;7.244;2022-12-17T03:08:52;-0.80;93.90
48998;DHT22;34807;51.456;7.244;2022-12-17T03:11:36;-0.90;93.90
48998;DHT22;34807;51.456;7.244;2022-12-17T03:14:20;-0.90;93.90
48998;DHT22;34807;51.456;7.244;2022-12-17T03:17:05;-0.80;93.90
48998;DHT22;34807;51.456;7.244;2022-12-17T03:19:49;-0.90;93.90
48998;DHT22;34807;51.456;7.244;2022-12-17T03:22:44;-0.90;93.90
48998;DHT22;34807;51.456;7.244;2022-12-17T03:25:28;-0.90;93.90
48998;DHT22;34807;51.456;7.244;2022-12-17T03:28:12;-0.90;93.80
48998;DHT22;34807;51.456;7.244;2022-12-17T03:30:57;-0.90;93.90
48998;DHT22;34807;51.456;7.244;2022-12-17T03:33:41;-0.90;93.80
48998;DHT22;34807;51.456;7.244;2022-12-17T03:36:25;-0.90;93.90
48998;DHT22;34807;51.456;7.244;2022-12-17T03:39:09;-0.90;93.80
48998;DHT22;34807;51.456;7.244;2022-12-17T03:41:53;-0.90;93.80
48998;DHT22;34807;51.456;7.244;2022-12-17T03:44:38;-0.90;93.80
48998;DHT22;34807;51.456;7.244;2022-12-17T03:47:22;-0.90;93.80
48998;DHT22;34807;51.456;7.244;2022-12-17T03:50:06;-0.90;93.80
48998;DHT22;34807;51.456;7.244;2022-12-17T03:52:51;-0.90;93.80
48998;DHT22;34807;51.456;7.244;2022-12-17T03:55:35;-0.90;93.80
48998;DHT22;34807;51.456;7.244;2022-12-17T03:58:19;-0.90;93.80
48998;DHT22;34807;51.456;7.244;2022-12-17T04:01:03;-0.90;93.80
48998;DHT22;34807;51.456;7.244;2022-12-17T04:03:48;-0.90;93.80
48998;DHT22;34807;51.456;7.244;2022-12-17T04:06:32;-0.90;93.80
48998;DHT22;34807;51.456;7.244;2022-12-17T04:09:16;-0.90;93.80
48998;DHT22;34807;51.456;7.244;2022-12-17T04:12:00;-0.90;93.80
48998;DHT22;34807;51.456;7.244;2022-12-17T04:14:44;-0.90;93.80
48998;DHT22;34807;51.456;7.244;2022-12-17T04:17:28;-0.90;93.80
48998;DHT22;34807;51.456;7.244;2022-12-17T04:20:13;-0.90;93.80
48998;DHT22;34807;51.456;7.244;2022-12-17T04:22:57;-0.90;93.70
48998;DHT22;34807;51.456;7.244;2022-12-17T04:25:41;-0.90;93.80
48998;DHT22;34807;51.456;7.244;2022-12-17T04:28:25;-0.90;93.80
48998;DHT22;34807;51.456;7.244;2022-12-17T04:31:09;-0.90;93.80
48998;DHT22;34807;51.456;7.244;2022-12-17T04:33:54;-0.90;93.80
48998;DHT22;34807;51.456;7.244;2022-12-17T04:36:38;-0.90;93.80
48998;DHT22;34807;51.456;7.244;2022-12-17T04:39:24;-0.90;94.10
48998;DHT22;34807;51.456;7.244;2022-12-17T04:42:08;-0.90;93.80
48998;DHT22;34807;51.456;7.244;2022-12-17T04:44:52;-0.90;93.80
48998;DHT22;34807;51.456;7.244;2022-12-17T04:47:41;-0.90;93.80
48998;DHT22;34807;51.456;7.244;2022-12-17T04:50:25;-0.90;93.80
48998;DHT22;34807;51.456;7.244;2022-12-17T04:53:09;-0.90;93.80
48998;DHT22;34807;51.456;7.244;2022-12-17T04:55:54;-0.90;93.80
48998;DHT22;34807;51.456;7.244;2022-12-17T04:58:37;-0.90;93.80
48998;DHT22;34807;51.456;7.244;2022-12-17T05:01:22;-0.90;93.80
48998;DHT22;34807;51.456;7.244;2022-12-17T05:04:06;-0.90;93.90
48998;DHT22;34807;51.456;7.244;2022-12-17T05:07:04;-0.90;93.80
48998;DHT22;34807;51.456;7.244;2022-12-17T05:09:48;-0.90;93.80
48998;DHT22;34807;51.456;7.244;2022-12-17T05:12:32;-0.90;93.90
48998;DHT22;34807;51.456;7.244;2022-12-17T05:15:16;-0.90;93.80
48998;DHT22;34807;51.456;7.244;2022-12-17T05:18:04;-0.90;93.80
48998;DHT22;34807;51.456;7.244;2022-12-17T05:20:48;-0.90;93.80
48998;DHT22;34807;51.456;7.244;2022-12-17T05:23:32;-0.90;93.80
48998;DHT22;34807;51.456;7.244;2022-12-17T05:26:18;-0.90;93.80
48998;DHT22;34807;51.456;7.244;2022-12-17T05:29:02;-0.90;93.80
48998;DHT22;34807;51.456;7.244;2022-12-17T05:31:47;-0.90;93.80
48998;DHT22;34807;51.456;7.244;2022-12-17T05:34:32;-0.80;93.80
48998;DHT22;34807;51.456;7.244;2022-12-17T05:37:16;-0.90;93.80
48998;DHT22;34807;51.456;7.244;2022-12-17T05:40:00;-0.90;93.80
48998;DHT22;34807;51.456;7.244;2022-12-17T05:42:58;-0.90;93.80
48998;DHT22;34807;51.456;7.244;2022-12-17T05:45:43;-0.80;93.90
48998;DHT22;34807;51.456;7.244;2022-12-17T05:48:28;-0.90;93.80
48998;DHT22;34807;51.456;7.244;2022-12-17T05:51:12;-0.80;93.80
48998;DHT22;34807;51.456;7.244;2022-12-17T05:53:56;-0.80;93.90
48998;DHT22;34807;51.456;7.244;2022-12-17T05:56:40;-0.80;93.90
48998;DHT22;34807;51.456;7.244;2022-12-17T05:59:25;-0.80;93.90
48998;DHT22;34807;51.456;7.244;2022-12-17T06:02:09;-0.90;93.90
48998;DHT22;34807;51.456;7.244;2022-12-17T06:04:53;-0.80;93.90
48998;DHT22;34807;51.456;7.244;2022-12-17T06:07:37;-0.80;93.90
48998;DHT22;34807;51.456;7.244;2022-12-17T06:10:41;-0.90;93.90
48998;DHT22;34807;51.456;7.244;2022-12-17T06:13:25;-0.90;93.90
48998;DHT22;34807;51.456;7.244;2022-12-17T06:16:09;-0.90;93.90
48998;DHT22;34807;51.456;7.244;2022-12-17T06:18:53;-0.90;93.90
48998;DHT22;34807;51.456;7.244;2022-12-17T06:21:38;-0.90;93.90
48998;DHT22;34807;51.456;7.244;2022-12-17T06:24:22;-0.80;93.90
48998;DHT22;34807;51.456;7.244;2022-12-17T06:27:06;-0.90;93.90
48998;DHT22;34807;51.456;7.244;2022-12-17T06:29:50;-0.80;93.90
48998;DHT22;34807;51.456;7.244;2022-12-17T06:32:35;-0.90;93.90
48998;DHT22;34807;51.456;7.244;2022-12-17T06:35:19;-0.80;93.90
48998;DHT22;34807;51.456;7.244;2022-12-17T06:38:05;-0.90;93.90
48998;DHT22;34807;51.456;7.244;2022-12-17T06:40:49;-0.80;93.90
48998;DHT22;34807;51.456;7.244;2022-12-17T06:43:33;-0.90;93.90
48998;DHT22;34807;51.456;7.244;2022-12-17T06:46:17;-0.80;93.90
48998;DHT22;34807;51.456;7.244;2022-12-17T06:49:02;-0.80;93.90
48998;DHT22;34807;51.456;7.244;2022-12-17T06:51:46;-0.80;93.90
48998;DHT22;34807;51.456;7.244;2022-12-17T06:54:30;-0.90;93.90
48998;DHT22;34807;51.456;7.244;2022-12-17T06:57:14;-0.80;93.90
48998;DHT22;34807;51.456;7.244;2022-12-17T06:59:59;-0.90;93.90
48998;DHT22;34807;51.456;7.244;2022-12-17T07:02:43;-0.80;93.90
48998;DHT22;34807;51.456;7.244;2022-12-17T07:05:27;-0.80;93.90
48998;DHT22;34807;51.456;7.244;2022-12-17T07:08:11;-0.90;93.80
48998;DHT22;34807;51.456;7.244;2022-12-17T07:10:59;-0.90;93.80
48998;DHT22;34807;51.456;7.244;2022-12-17T07:13:43;-0.90;93.80
48998;DHT22;34807;51.456;7.244;2022-12-17T07:16:27;-0.90;93.80
48998;DHT22;34807;51.456;7.244;2022-12-17T07:19:12;-0.90;93.90
48998;DHT22;34807;51.456;7.244;2022-12-17T07:21:56;-0.90;93.80
48998;DHT22;34807;51.456;7.244;2022-12-17T07:24:40;-0.80;93.90
48998;DHT22;34807;51.456;7.244;2022-12-17T07:27:24;-0.90;93.80
48998;DHT22;34807;51.456;7.244;2022-12-17T07:30:08;-0.90;93.80
48998;DHT22;34807;51.456;7.244;2022-12-17T07:32:57;-0.90;93.80
48998;DHT22;34807;51.456;7.244;2022-12-17T07:35:41;-0.90;93.80
48998;DHT22;34807;51.456;7.244;2022-12-17T07:38:25;-0.90;93.80
48998;DHT22;34807;51.456;7.244;2022-12-17T07:41:10;-0.90;93.80
48998;DHT22;34807;51.456;7.244;2022-12-17T07:43:54;-0.90;93.80
48998;DHT22;34807;51.456;7.244;2022-12-17T07:46:38;-0.90;93.80
48998;DHT22;34807;51.456;7.244;2022-12-17T07:49:22;-0.90;93.80
48998;DHT22;34807;51.456;7.244;2022-12-17T07:52:06;-0.90;93.80
48998;DHT22;34807;51.456;7.244;2022-12-17T07:54:51;-0.90;93.80
48998;DHT22;34807;51.456;7.244;2022-12-17T07:57:35;-0.90;93.80
48998;DHT22;34807;51.456;7.244;2022-12-17T08:00:19;-0.90;93.80
48998;DHT22;34807;51.456;7.244;2022-12-17T08:03:04;-0.80;93.80
48998;DHT22;34807;51.456;7.244;2022-12-17T08:05:48;-0.90;93.80
48998;DHT22;34807;51.456;7.244;2022-12-17T08:08:32;-0.80;93.80
48998;DHT22;34807;51.456;7.244;2022-12-17T08:11:16;-0.90;93.80
48998;DHT22;34807;51.456;7.244;2022-12-17T08:14:00;-0.90;93.70
48998;DHT22;34807;51.456;7.244;2022-12-17T08:16:45;-0.90;93.70
48998;DHT22;34807;51.456;7.244;2022-12-17T08:19:29;-0.90;93.70
48998;DHT22;34807;51.456;7.244;2022-12-17T08:22:13;-0.90;93.70
48998;DHT22;34807;51.456;7.244;2022-12-17T08:24:57;-0.90;93.70
48998;DHT22;34807;51.456;7.244;2022-12-17T08:27:42;-0.90;93.70
48998;DHT22;34807;51.456;7.244;2022-12-17T08:30:26;-0.90;93.70
48998;DHT22;34807;51.456;7.244;2022-12-17T08:33:10;-0.90;93.60
48998;DHT22;34807;51.456;7.244;2022-12-17T08:35:55;-0.90;93.60
48998;DHT22;34807;51.456;7.244;2022-12-17T08:38:39;-0.90;93.60
48998;DHT22;34807;51.456;7.244;2022-12-17T08:41:23;-0.90;93.60
48998;DHT22;34807;51.456;7.244;2022-12-17T08:44:07;-0.80;93.60
48998;DHT22;34807;51.456;7.244;2022-12-17T08:46:51;-0.90;93.50
48998;DHT22;34807;51.456;7.244;2022-12-17T08:49:36;-0.80;93.60
48998;DHT22;34807;51.456;7.244;2022-12-17T08:52:20;-0.80;93.60
48998;DHT22;34807;51.456;7.244;2022-12-17T08:55:06;-0.80;93.60
48998;DHT22;34807;51.456;7.244;2022-12-17T08:57:56;-0.80;93.50
48998;DHT22;34807;51.456;7.244;2022-12-17T09:00:41;-0.80;93.50
48998;DHT22;34807;51.456;7.244;2022-12-17T09:03:30;-0.80;93.50
48998;DHT22;34807;51.456;7.244;2022-12-17T09:06:14;-0.80;93.50
48998;DHT22;34807;51.456;7.244;2022-12-17T09:09:09;-0.80;93.50
48998;DHT22;34807;51.456;7.244;2022-12-17T09:11:53;-0.80;93.50
48998;DHT22;34807;51.456;7.244;2022-12-17T09:14:37;-0.80;93.50
48998;DHT22;34807;51.456;7.244;2022-12-17T09:17:21;-0.80;93.40
48998;DHT22;34807;51.456;7.244;2022-12-17T09:20:06;-0.80;93.40
48998;DHT22;34807;51.456;7.244;2022-12-17T09:22:50;-0.80;93.40
48998;DHT22;34807;51.456;7.244;2022-12-17T09:25:34;-0.80;93.40
48998;DHT22;34807;51.456;7.244;2022-12-17T09:28:18;-0.80;93.40
48998;DHT22;34807;51.456;7.244;2022-12-17T09:31:03;-0.70;93.40
48998;DHT22;34807;51.456;7.244;2022-12-17T09:33:47;-0.80;93.40
48998;DHT22;34807;51.456;7.244;2022-12-17T09:36:31;-0.80;93.30
48998;DHT22;34807;51.456;7.244;2022-12-17T09:39:15;-0.80;93.30
48998;DHT22;34807;51.456;7.244;2022-12-17T09:47:51;-0.70;93.30
48998;DHT22;34807;51.456;7.244;2022-12-17T09:50:37;-0.70;93.20
48998;DHT22;34807;51.456;7.244;2022-12-17T09:53:34;-0.60;93.20
48998;DHT22;34807;51.456;7.244;2022-12-17T09:56:19;-0.60;93.10
48998;DHT22;34807;51.456;7.244;2022-12-17T09:59:04;-0.60;93.10
48998;DHT22;34807;51.456;7.244;2022-12-17T10:01:48;-0.60;93.10
48998;DHT22;34807;51.456;7.244;2022-12-17T10:07:21;-0.60;93.10
48998;DHT22;34807;51.456;7.244;2022-12-17T10:10:13;-0.50;93.10
48998;DHT22;34807;51.456;7.244;2022-12-17T10:12:57;-0.50;93.10
48998;DHT22;34807;51.456;7.244;2022-12-17T10:15:41;-0.60;93.10
48998;DHT22;34807;51.456;7.244;2022-12-17T10:18:25;-0.50;93.10
48998;DHT22;34807;51.456;7.244;2022-12-17T10:21:20;-0.50;93.10
48998;DHT22;34807;51.456;7.244;2022-12-17T10:24:05;-0.50;93.10
48998;DHT22;34807;51.456;7.244;2022-12-17T10:26:49;-0.60;93.10
48998;DHT22;34807;51.456;7.244;2022-12-17T10:29:34;-0.60;93.10
48998;DHT22;34807;51.456;7.244;2022-12-17T10:32:19;-0.60;93.20
48998;DHT22;34807;51.456;7.244;2022-12-17T10:38:01;-0.60;93.20
48998;DHT22;34807;51.456;7.244;2022-12-17T10:40:52;-0.60;93.20
48998;DHT22;34807;51.456;7.244;2022-12-17T10:43:38;-0.60;93.20
48998;DHT22;34807;51.456;7.244;2022-12-17T10:49:11;-0.60;93.10
48998;DHT22;34807;51.456;7.244;2022-12-17T10:52:03;-0.60;93.10
48998;DHT22;34807;51.456;7.244;2022-12-17T10:54:59;-0.50;93.10
48998;DHT22;34807;51.456;7.244;2022-12-17T10:57:43;-0.60;93.10
48998;DHT22;34807;51.456;7.244;2022-12-17T11:00:38;-0.60;93.10
48998;DHT22;34807;51.456;7.244;2022-12-17T11:06:27;-0.60;93.00
48998;DHT22;34807;51.456;7.244;2022-12-17T11:09:15;-0.50;93.00
48998;DHT22;34807;51.456;7.244;2022-12-17T11:12:01;-0.50;93.00
48998;DHT22;34807;51.456;7.244;2022-12-17T11:14:49;-0.50;92.90
48998;DHT22;34807;51.456;7.244;2022-12-17T11:17:35;-0.50;92.90
48998;DHT22;34807;51.456;7.244;2022-12-17T11:20:22;-0.50;93.00
48998;DHT22;34807;51.456;7.244;2022-12-17T11:23:20;-0.50;93.10
48998;DHT22;34807;51.456;7.244;2022-12-17T11:26:09;-0.50;93.10
48998;DHT22;34807;51.456;7.244;2022-12-17T11:28:53;-0.50;93.10
48998;DHT22;34807;51.456;7.244;2022-12-17T11:34:45;-0.50;93.20
48998;DHT22;34807;51.456;7.244;2022-12-17T11:40:43;-0.50;93.10
48998;DHT22;34807;51.456;7.244;2022-12-17T11:49:23;-0.50;93.10
48998;DHT22;34807;51.456;7.244;2022-12-17T11:58:00;-0.50;93.20
48998;DHT22;34807;51.456;7.244;2022-12-17T12:00:53;-0.50;93.20
48998;DHT22;34807;51.456;7.244;2022-12-17T12:07:01;-0.50;93.10
48998;DHT22;34807;51.456;7.244;2022-12-17T12:15:22;-0.50;93.20
48998;DHT22;34807;51.456;7.244;2022-12-17T12:18:09;-0.50;93.20
48998;DHT22;34807;51.456;7.244;2022-12-17T12:21:06;-0.50;93.20
48998;DHT22;34807;51.456;7.244;2022-12-17T12:35:24;-0.50;93.30
48998;DHT22;34807;51.456;7.244;2022-12-17T12:38:10;-0.50;93.30
48998;DHT22;34807;51.456;7.244;2022-12-17T12:40:59;-0.50;93.30
48998;DHT22;34807;51.456;7.244;2022-12-17T12:43:46;-0.50;93.30
48998;DHT22;34807;51.456;7.244;2022-12-17T12:46:45;-0.50;93.30
48998;DHT22;34807;51.456;7.244;2022-12-17T12:49:32;-0.50;93.30
48998;DHT22;34807;51.456;7.244;2022-12-17T12:52:19;-0.50;93.30
48998;DHT22;34807;51.456;7.244;2022-12-17T12:55:04;-0.50;93.30
48998;DHT22;34807;51.456;7.244;2022-12-17T13:00:50;-0.50;93.30
48998;DHT22;34807;51.456;7.244;2022-12-17T13:03:39;-0.50;93.30
48998;DHT22;34807;51.456;7.244;2022-12-17T13:17:01;-0.50;93.40
48998;DHT22;34807;51.456;7.244;2022-12-17T13:19:38;-0.50;93.40
48998;DHT22;34807;51.456;7.244;2022-12-17T13:24:35;-0.60;93.30
48998;DHT22;34807;51.456;7.244;2022-12-17T13:27:01;-0.50;93.40
48998;DHT22;34807;51.456;7.244;2022-12-17T13:29:33;-0.60;93.40
48998;DHT22;34807;51.456;7.244;2022-12-17T13:34:28;-0.50;93.40
48998;DHT22;34807;51.456;7.244;2022-12-17T13:37:06;-0.50;93.40
48998;DHT22;34807;51.456;7.244;2022-12-17T13:39:34;-0.60;93.40
48998;DHT22;34807;51.456;7.244;2022-12-17T13:42:03;-0.60;93.40
48998;DHT22;34807;51.456;7.244;2022-12-17T13:44:37;-0.60;93.40
48998;DHT22;34807;51.456;7.244;2022-12-17T13:47:04;-0.60;93.40
48998;DHT22;34807;51.456;7.244;2022-12-17T13:49:30;-0.60;93.40
48998;DHT22;34807;51.456;7.244;2022-12-17T13:52:38;-0.60;93.40
48998;DHT22;34807;51.456;7.244;2022-12-17T13:54:44;-0.60;93.40
48998;DHT22;34807;51.456;7.244;2022-12-17T13:59:47;-0.60;93.40
48998;DHT22;34807;51.456;7.244;2022-12-17T14:02:23;-0.60;93.40
48998;DHT22;34807;51.456;7.244;2022-12-17T14:04:53;-0.60;93.40
48998;DHT22;34807;51.456;7.244;2022-12-17T14:07:19;-0.60;93.40
48998;DHT22;34807;51.456;7.244;2022-12-17T14:09:44;-0.60;93.50
48998;DHT22;34807;51.456;7.244;2022-12-17T14:12:11;-0.60;93.50
48998;DHT22;34807;51.456;7.244;2022-12-17T14:14:56;-0.70;93.50
48998;DHT22;34807;51.456;7.244;2022-12-17T14:17:56;-0.70;93.40
48998;DHT22;34807;51.456;7.244;2022-12-17T14:20:33;-0.60;93.50
48998;DHT22;34807;51.456;7.244;2022-12-17T14:23:03;-0.70;93.40
48998;DHT22;34807;51.456;7.244;2022-12-17T14:25:34;-0.70;93.50
48998;DHT22;34807;51.456;7.244;2022-12-17T14:28:02;-0.70;93.50
48998;DHT22;34807;51.456;7.244;2022-12-17T14:30:40;-0.70;93.50
48998;DHT22;34807;51.456;7.244;2022-12-17T14:35:52;-0.70;93.50
48998;DHT22;34807;51.456;7.244;2022-12-17T14:38:18;-0.70;93.60
48998;DHT22;34807;51.456;7.244;2022-12-17T14:40:44;-0.80;93.50
48998;DHT22;34807;51.456;7.244;2022-12-17T14:43:09;-0.70;93.60
48998;DHT22;34807;51.456;7.244;2022-12-17T14:45:37;-0.80;93.80
48998;DHT22;34807;51.456;7.244;2022-12-17T14:48:23;-0.80;93.60
48998;DHT22;34807;51.456;7.244;2022-12-17T14:51:20;-0.80;93.60
48998;DHT22;34807;51.456;7.244;2022-12-17T14:53:45;-0.80;93.60
48998;DHT22;34807;51.456;7.244;2022-12-17T14:56:20;-0.80;93.60
48998;DHT22;34807;51.456;7.244;2022-12-17T14:58:46;-0.90;93.60
48998;DHT22;34807;51.456;7.244;2022-12-17T15:01:11;-0.90;93.60
48998;DHT22;34807;51.456;7.244;2022-12-17T15:03:43;-0.90;93.60
48998;DHT22;34807;51.456;7.244;2022-12-17T15:06:12;-0.90;93.60
48998;DHT22;34807;51.456;7.244;2022-12-17T15:08:40;-0.90;93.70
48998;DHT22;34807;51.456;7.244;2022-12-17T15:11:06;-0.90;93.70
48998;DHT22;34807;51.456;7.244;2022-12-17T15:13:31;-0.90;93.70
48998;DHT22;34807;51.456;7.244;2022-12-17T15:15:57;-0.90;93.70
48998;DHT22;34807;51.456;7.244;2022-12-17T15:18:23;-1.00;93.70
48998;DHT22;34807;51.456;7.244;2022-12-17T15:20:48;-1.00;93.70
48998;DHT22;34807;51.456;7.244;2022-12-17T15:23:15;-1.00;93.70
48998;DHT22;34807;51.456;7.244;2022-12-17T15:25:40;-1.00;93.70
48998;DHT22;34807;51.456;7.244;2022-12-17T15:28:06;-1.00;93.70
48998;DHT22;34807;51.456;7.244;2022-12-17T15:30:32;-1.00;93.70
48998;DHT22;34807;51.456;7.244;2022-12-17T15:32:57;-1.10;93.70
48998;DHT22;34807;51.456;7.244;2022-12-17T15:35:23;-1.10;93.70
48998;DHT22;34807;51.456;7.244;2022-12-17T15:37:48;-1.10;93.70
48998;DHT22;34807;51.456;7.244;2022-12-17T15:40:14;-1.10;93.70
48998;DHT22;34807;51.456;7.244;2022-12-17T15:42:39;-1.10;93.70
48998;DHT22;34807;51.456;7.244;2022-12-17T15:45:24;-1.10;93.70
48998;DHT22;34807;51.456;7.244;2022-12-17T15:47:49;-1.10;93.70
48998;DHT22;34807;51.456;7.244;2022-12-17T15:50:15;-1.20;93.60
48998;DHT22;34807;51.456;7.244;2022-12-17T15:52:40;-1.20;93.70
48998;DHT22;34807;51.456;7.244;2022-12-17T15:55:06;-1.20;93.70
48998;DHT22;34807;51.456;7.244;2022-12-17T15:57:31;-1.20;93.60
48998;DHT22;34807;51.456;7.244;2022-12-17T15:59:57;-1.20;93.70
48998;DHT22;34807;51.456;7.244;2022-12-17T16:02:22;-1.20;93.70
48998;DHT22;34807;51.456;7.244;2022-12-17T16:04:48;-1.20;93.70
48998;DHT22;34807;51.456;7.244;2022-12-17T16:07:13;-1.20;93.80
48998;DHT22;34807;51.456;7.244;2022-12-17T16:09:40;-1.20;93.70
48998;DHT22;34807;51.456;7.244;2022-12-17T16:12:06;-1.20;93.50
48998;DHT22;34807;51.456;7.244;2022-12-17T16:14:31;-1.10;93.50
48998;DHT22;34807;51.456;7.244;2022-12-17T16:16:57;-1.10;93.40
48998;DHT22;34807;51.456;7.244;2022-12-17T16:19:22;-1.10;93.40
48998;DHT22;34807;51.456;7.244;2022-12-17T16:21:48;-1.10;93.30
48998;DHT22;34807;51.456;7.244;2022-12-17T16:24:13;-1.10;93.30
48998;DHT22;34807;51.456;7.244;2022-12-17T16:26:39;-1.20;93.20
48998;DHT22;34807;51.456;7.244;2022-12-17T16:29:04;-1.20;93.20
48998;DHT22;34807;51.456;7.244;2022-12-17T16:31:30;-1.20;93.20
48998;DHT22;34807;51.456;7.244;2022-12-17T16:33:56;-1.20;93.20
48998;DHT22;34807;51.456;7.244;2022-12-17T16:36:21;-1.20;93.20
48998;DHT22;34807;51.456;7.244;2022-12-17T16:38:48;-1.20;93.20
48998;DHT22;34807;51.456;7.244;2022-12-17T16:41:14;-1.20;93.20
48998;DHT22;34807;51.456;7.244;2022-12-17T16:43:40;-1.20;93.10
48998;DHT22;34807;51.456;7.244;2022-12-17T16:46:09;-1.20;93.10
48998;DHT22;34807;51.456;7.244;2022-12-17T16:48:46;-1.20;93.10
48998;DHT22;34807;51.456;7.244;2022-12-17T16:51:15;-1.20;93.10
48998;DHT22;34807;51.456;7.244;2022-12-17T16:53:41;-1.30;93.00
48998;DHT22;34807;51.456;7.244;2022-12-17T16:56:07;-1.20;93.00
48998;DHT22;34807;51.456;7.244;2022-12-17T16:58:32;-1.20;93.00
48998;DHT22;34807;51.456;7.244;2022-12-17T17:00:58;-1.30;92.90
48998;DHT22;34807;51.456;7.244;2022-12-17T17:03:24;-1.30;92.90
48998;DHT22;34807;51.456;7.244;2022-12-17T17:05:49;-1.30;92.90
48998;DHT22;34807;51.456;7.244;2022-12-17T17:08:15;-1.30;92.90
48998;DHT22;34807;51.456;7.244;2022-12-17T17:10:40;-1.30;92.90
48998;DHT22;34807;51.456;7.244;2022-12-17T17:13:06;-1.30;92.90
48998;DHT22;34807;51.456;7.244;2022-12-17T17:15:31;-1.30;92.80
48998;DHT22;34807;51.456;7.244;2022-12-17T17:17:57;-1.30;93.10
48998;DHT22;34807;51.456;7.244;2022-12-17T17:20:23;-1.40;92.80
48998;DHT22;34807;51.456;7.244;2022-12-17T17:22:49;-1.40;92.80
48998;DHT22;34807;51.456;7.244;2022-12-17T17:25:14;-1.40;92.80
48998;DHT22;34807;51.456;7.244;2022-12-17T17:27:39;-1.40;92.80
48998;DHT22;34807;51.456;7.244;2022-12-17T17:30:05;-1.40;92.70
48998;DHT22;34807;51.456;7.244;2022-12-17T17:32:31;-1.40;92.70
48998;DHT22;34807;51.456;7.244;2022-12-17T17:34:56;-1.40;92.70
48998;DHT22;34807;51.456;7.244;2022-12-17T17:37:22;-1.40;92.70
48998;DHT22;34807;51.456;7.244;2022-12-17T17:39:47;-1.50;92.70
48998;DHT22;34807;51.456;7.244;2022-12-17T17:42:13;-1.50;92.60
48998;DHT22;34807;51.456;7.244;2022-12-17T17:44:38;-1.50;92.70
48998;DHT22;34807;51.456;7.244;2022-12-17T17:47:04;-1.50;92.60
48998;DHT22;34807;51.456;7.244;2022-12-17T17:49:29;-1.50;92.60
48998;DHT22;34807;51.456;7.244;2022-12-17T17:51:54;-1.50;92.60
48998;DHT22;34807;51.456;7.244;2022-12-17T17:54:20;-1.60;92.60
48998;DHT22;34807;51.456;7.244;2022-12-17T17:56:45;-1.60;92.50
48998;DHT22;34807;51.456;7.244;2022-12-17T17:59:14;-1.60;92.50
48998;DHT22;34807;51.456;7.244;2022-12-17T18:01:47;-1.60;92.50
48998;DHT22;34807;51.456;7.244;2022-12-17T18:04:14;-1.60;92.50
48998;DHT22;34807;51.456;7.244;2022-12-17T18:06:41;-1.60;92.50
48998;DHT22;34807;51.456;7.244;2022-12-17T18:09:07;-1.60;92.50
48998;DHT22;34807;51.456;7.244;2022-12-17T18:11:33;-1.60;92.50
48998;DHT22;34807;51.456;7.244;2022-12-17T18:13:59;-1.60;92.40